sensor_id;sensor_type;location;lat;lon;timestamp;pressure;altitude;pressure_sealevel;temperature
67515;BMP280;60646;55.802;37.032;2023-04-01T00:00:21;98268.47;;;8.83
67515;BMP280;60646;55.802;37.032;2023-04-01T00:02:47;98260.56;;;8.77
67515;BMP280;60646;55.802;37.032;2023-04-01T00:05:13;98278.34;;;8.88
67515;BMP280;60646;55.802;37.032;2023-04-01T00:07:40;98272.81;;;8.86
67515;BMP280;60646;55.802;37.032;2023-04-01T00:10:07;98271.34;;;8.85
67515;BMP280;60646;55.802;37.032;2023-04-01T00:12:34;98271.88;;;8.83
67515;BMP280;60646;55.802;37.032;2023-04-01T00:15:01;98245.41;;;8.67
67515;BMP280;60646;55.802;37.032;2023-04-01T00:17:30;98262.53;;;8.71
67515;BMP280;60646;55.802;37.032;2023-04-01T00:19:57;98271.94;;;8.78
67515;BMP280;60646;55.802;37.032;2023-04-01T00:22:24;98253.19;;;8.65
67515;BMP280;60646;55.802;37.032;2023-04-01T00:24:50;98252.63;;;8.72
67515;BMP280;60646;55.802;37.032;2023-04-01T00:27:16;98269.03;;;8.76
67515;BMP280;60646;55.802;37.032;2023-04-01T00:29:42;98248.09;;;8.67
67515;BMP280;60646;55.802;37.032;2023-04-01T00:32:09;98267.31;;;8.78
67515;BMP280;60646;55.802;37.032;2023-04-01T00:34:35;98246.41;;;8.64
67515;BMP280;60646;55.802;37.032;2023-04-01T00:37:01;98261.84;;;8.71
67515;BMP280;60646;55.802;37.032;2023-04-01T00:39:29;98271.94;;;8.78
67515;BMP280;60646;55.802;37.032;2023-04-01T00:41:55;98263.72;;;8.76
67515;BMP280;60646;55.802;37.032;2023-04-01T00:44:28;98263.72;;;8.76
67515;BMP280;60646;55.802;37.032;2023-04-01T00:46:55;98245.97;;;8.60
67515;BMP280;60646;55.802;37.032;2023-04-01T00:49:28;98253.19;;;8.65
67515;BMP280;60646;55.802;37.032;2023-04-01T00:51:57;98261.13;;;8.70
67515;BMP280;60646;55.802;37.032;2023-04-01T00:54:46;98259.44;;;8.67
67515;BMP280;60646;55.802;37.032;2023-04-01T00:57:23;98249.84;;;8.59
67515;BMP280;60646;55.802;37.032;2023-04-01T00:59:52;98263.13;;;8.64
67515;BMP280;60646;55.802;37.032;2023-04-01T01:02:20;98247.00;;;8.57
67515;BMP280;60646;55.802;37.032;2023-04-01T01:04:46;98250.09;;;8.61
67515;BMP280;60646;55.802;37.032;2023-04-01T01:07:39;98267.97;;;8.60
67515;BMP280;60646;55.802;37.032;2023-04-01T01:10:14;98264.38;;;8.58
67515;BMP280;60646;55.802;37.032;2023-04-01T01:15:50;98256.41;;;8.58
67515;BMP280;60646;55.802;37.032;2023-04-01T01:18:31;98255.88;;;8.59
67515;BMP280;60646;55.802;37.032;2023-04-01T01:26:53;98234.03;;;8.48
67515;BMP280;60646;55.802;37.032;2023-04-01T01:37:15;98260.78;;;8.55
67515;BMP280;60646;55.802;37.032;2023-04-01T01:39:49;98270.16;;;8.62
67515;BMP280;60646;55.802;37.032;2023-04-01T01:42:18;98247.81;;;8.46
67515;BMP280;60646;55.802;37.032;2023-04-01T01:44:46;98249.22;;;8.53
67515;BMP280;60646;55.802;37.032;2023-04-01T01:47:14;98275.47;;;8.62
67515;BMP280;60646;55.802;37.032;2023-04-01T01:49:41;98256.72;;;8.49
67515;BMP280;60646;55.802;37.032;2023-04-01T01:52:08;98265.81;;;8.59
67515;BMP280;60646;55.802;37.032;2023-04-01T01:54:33;98262.03;;;8.49
67515;BMP280;60646;55.802;37.032;2023-04-01T01:57:07;98265.16;;;8.53
67515;BMP280;60646;55.802;37.032;2023-04-01T01:59:38;98267.59;;;8.51
67515;BMP280;60646;55.802;37.032;2023-04-01T02:02:06;98265.94;;;8.48
67515;BMP280;60646;55.802;37.032;2023-04-01T02:04:38;98279.91;;;8.54
67515;BMP280;60646;55.802;37.032;2023-04-01T02:07:12;98275.56;;;8.51
67515;BMP280;60646;55.802;37.032;2023-04-01T02:09:40;98260.41;;;8.40
67515;BMP280;60646;55.802;37.032;2023-04-01T02:12:10;98269.81;;;8.47
67515;BMP280;60646;55.802;37.032;2023-04-01T02:17:20;98278.28;;;8.45
67515;BMP280;60646;55.802;37.032;2023-04-01T02:19:58;98268.47;;;8.35
67515;BMP280;60646;55.802;37.032;2023-04-01T02:22:28;98269.44;;;8.31
67515;BMP280;60646;55.802;37.032;2023-04-01T02:24:59;98276.13;;;8.44
67515;BMP280;60646;55.802;37.032;2023-04-01T02:27:26;98285.09;;;8.41
67515;BMP280;60646;55.802;37.032;2023-04-01T02:29:52;98283.16;;;8.41
67515;BMP280;60646;55.802;37.032;2023-04-01T02:32:19;98273.72;;;8.40
67515;BMP280;60646;55.802;37.032;2023-04-01T02:34:46;98274.44;;;8.41
67515;BMP280;60646;55.802;37.032;2023-04-01T02:37:13;98271.63;;;8.33
67515;BMP280;60646;55.802;37.032;2023-04-01T02:39:40;98271.34;;;8.37
67515;BMP280;60646;55.802;37.032;2023-04-01T02:42:06;98279.28;;;8.42
67515;BMP280;60646;55.802;37.032;2023-04-01T02:44:32;98267.03;;;8.33
67515;BMP280;60646;55.802;37.032;2023-04-01T02:46:58;98288.97;;;8.40
67515;BMP280;60646;55.802;37.032;2023-04-01T02:49:24;98283.22;;;8.36
67515;BMP280;60646;55.802;37.032;2023-04-01T02:51:50;98280.97;;;8.40
67515;BMP280;60646;55.802;37.032;2023-04-01T02:54:18;98293.59;;;8.39
67515;BMP280;60646;55.802;37.032;2023-04-01T02:56:44;98288.31;;;8.33
67515;BMP280;60646;55.802;37.032;2023-04-01T02:59:11;98303.72;;;8.41
67515;BMP280;60646;55.802;37.032;2023-04-01T03:01:37;98298.38;;;8.41
67515;BMP280;60646;55.802;37.032;2023-04-01T03:04:03;98286.63;;;8.30
67515;BMP280;60646;55.802;37.032;2023-04-01T03:06:29;98294.34;;;8.34
67515;BMP280;60646;55.802;37.032;2023-04-01T03:08:54;98289.75;;;8.35
67515;BMP280;60646;55.802;37.032;2023-04-01T03:11:20;98286.41;;;8.28
67515;BMP280;60646;55.802;37.032;2023-04-01T03:13:46;98297.75;;;8.35
67515;BMP280;60646;55.802;37.032;2023-04-01T03:16:12;98286.88;;;8.32
67515;BMP280;60646;55.802;37.032;2023-04-01T03:18:38;98295.78;;;8.35
67515;BMP280;60646;55.802;37.032;2023-04-01T03:21:18;98289.50;;;8.38
67515;BMP280;60646;55.802;37.032;2023-04-01T03:23:47;98309.72;;;8.47
67515;BMP280;60646;55.802;37.032;2023-04-01T03:26:13;98297.47;;;8.38
67515;BMP280;60646;55.802;37.032;2023-04-01T03:28:39;98307.06;;;8.47
67515;BMP280;60646;55.802;37.032;2023-04-01T03:31:05;98313.13;;;8.47
67515;BMP280;60646;55.802;37.032;2023-04-01T03:33:39;98314.56;;;8.48
67515;BMP280;60646;55.802;37.032;2023-04-01T03:36:05;98314.56;;;8.48
67515;BMP280;60646;55.802;37.032;2023-04-01T03:38:33;98302.25;;;8.40
67515;BMP280;60646;55.802;37.032;2023-04-01T03:40:59;98309.75;;;8.41
67515;BMP280;60646;55.802;37.032;2023-04-01T03:43:25;98300.41;;;8.35
67515;BMP280;60646;55.802;37.032;2023-04-01T03:45:52;98307.81;;;8.42
67515;BMP280;60646;55.802;37.032;2023-04-01T03:48:18;98306.81;;;8.45
67515;BMP280;60646;55.802;37.032;2023-04-01T03:50:44;98325.38;;;8.56
67515;BMP280;60646;55.802;37.032;2023-04-01T03:53:10;98307.59;;;8.40
67515;BMP280;60646;55.802;37.032;2023-04-01T03:55:39;98297.66;;;8.40
67515;BMP280;60646;55.802;37.032;2023-04-01T03:58:06;98322.94;;;8.58
67515;BMP280;60646;55.802;37.032;2023-04-01T04:00:33;98307.06;;;8.47
67515;BMP280;60646;55.802;37.032;2023-04-01T04:02:59;98323.91;;;8.55
67515;BMP280;60646;55.802;37.032;2023-04-01T04:05:30;98342.22;;;8.64
67515;BMP280;60646;55.802;37.032;2023-04-01T04:07:56;98334.09;;;8.56
67515;BMP280;60646;55.802;37.032;2023-04-01T04:10:23;98347.56;;;8.64
67515;BMP280;60646;55.802;37.032;2023-04-01T04:12:51;98334.56;;;8.55
67515;BMP280;60646;55.802;37.032;2023-04-01T04:15:18;98339.88;;;8.55
67515;BMP280;60646;55.802;37.032;2023-04-01T04:17:45;98365.41;;;8.69
67515;BMP280;60646;55.802;37.032;2023-04-01T04:20:13;98347.34;;;8.62
67515;BMP280;60646;55.802;37.032;2023-04-01T04:22:38;98354.59;;;8.61
67515;BMP280;60646;55.802;37.032;2023-04-01T04:25:07;98368.31;;;8.71
67515;BMP280;60646;55.802;37.032;2023-04-01T04:27:33;98373.63;;;8.71
67515;BMP280;60646;55.802;37.032;2023-04-01T04:30:08;98373.84;;;8.73
67515;BMP280;60646;55.802;37.032;2023-04-01T04:32:35;98363.50;;;8.64
67515;BMP280;60646;55.802;37.032;2023-04-01T04:35:02;98360.84;;;8.64
67515;BMP280;60646;55.802;37.032;2023-04-01T04:38:04;98366.53;;;8.79
67515;BMP280;60646;55.802;37.032;2023-04-01T04:41:16;98349.00;;;8.65
67515;BMP280;60646;55.802;37.032;2023-04-01T04:44:04;98362.94;;;8.76
67515;BMP280;60646;55.802;37.032;2023-04-01T04:46:31;98361.00;;;8.77
67515;BMP280;60646;55.802;37.032;2023-04-01T04:49:07;98368.75;;;8.75
67515;BMP280;60646;55.802;37.032;2023-04-01T04:51:33;98350.44;;;8.66
67515;BMP280;60646;55.802;37.032;2023-04-01T04:54:04;98359.31;;;8.74
67515;BMP280;60646;55.802;37.032;2023-04-01T04:56:53;98364.84;;;8.76
67515;BMP280;60646;55.802;37.032;2023-04-01T04:59:19;98365.59;;;8.76
67515;BMP280;60646;55.802;37.032;2023-04-01T05:02:05;98370.38;;;8.83
67515;BMP280;60646;55.802;37.032;2023-04-01T05:04:36;98374.69;;;8.86
67515;BMP280;60646;55.802;37.032;2023-04-01T05:07:02;98383.09;;;8.96
67515;BMP280;60646;55.802;37.032;2023-04-01T05:09:29;98377.31;;;8.92
67515;BMP280;60646;55.802;37.032;2023-04-01T05:11:54;98385.97;;;8.98
67515;BMP280;60646;55.802;37.032;2023-04-01T05:14:23;98387.84;;;9.03
67515;BMP280;60646;55.802;37.032;2023-04-01T05:17:10;98380.34;;;9.02
67515;BMP280;60646;55.802;37.032;2023-04-01T05:19:37;98390.44;;;9.09
67515;BMP280;60646;55.802;37.032;2023-04-01T05:22:03;98387.50;;;9.12
67515;BMP280;60646;55.802;37.032;2023-04-01T05:24:30;98387.75;;;9.14
67515;BMP280;60646;55.802;37.032;2023-04-01T05:26:55;98397.81;;;9.21
67515;BMP280;60646;55.802;37.032;2023-04-01T05:29:25;98410.81;;;9.30
67515;BMP280;60646;55.802;37.032;2023-04-01T05:31:56;98411.53;;;9.31
67515;BMP280;60646;55.802;37.032;2023-04-01T05:34:22;98413.94;;;9.34
67515;BMP280;60646;55.802;37.032;2023-04-01T05:36:48;98412.69;;;9.35
67515;BMP280;60646;55.802;37.032;2023-04-01T05:39:14;98408.38;;;9.32
67515;BMP280;60646;55.802;37.032;2023-04-01T05:41:41;98400.63;;;9.34
67515;BMP280;60646;55.802;37.032;2023-04-01T05:44:06;98402.75;;;9.36
67515;BMP280;60646;55.802;37.032;2023-04-01T05:46:38;98409.69;;;9.44
67515;BMP280;60646;55.802;37.032;2023-04-01T05:49:17;98424.34;;;9.57
67515;BMP280;60646;55.802;37.032;2023-04-01T05:51:43;98399.69;;;9.51
67515;BMP280;60646;55.802;37.032;2023-04-01T05:54:09;98415.75;;;9.64
67515;BMP280;60646;55.802;37.032;2023-04-01T05:56:36;98406.88;;;9.61
67515;BMP280;60646;55.802;37.032;2023-04-01T05:59:02;98405.59;;;9.62
67515;BMP280;60646;55.802;37.032;2023-04-01T06:01:27;98405.09;;;9.64
67515;BMP280;60646;55.802;37.032;2023-04-01T06:03:53;98405.09;;;9.64
67515;BMP280;60646;55.802;37.032;2023-04-01T06:06:27;98422.84;;;9.80
67515;BMP280;60646;55.802;37.032;2023-04-01T06:09:06;98412.81;;;9.67
67515;BMP280;60646;55.802;37.032;2023-04-01T06:11:55;98427.63;;;9.87
67515;BMP280;60646;55.802;37.032;2023-04-01T06:20:11;98439.78;;;10.01
67515;BMP280;60646;55.802;37.032;2023-04-01T06:44:40;98446.88;;;10.30
67515;BMP280;60646;55.802;37.032;2023-04-01T06:56:53;98442.44;;;10.38
67515;BMP280;60646;55.802;37.032;2023-04-01T06:59:30;98464.44;;;10.57
67515;BMP280;60646;55.802;37.032;2023-04-01T07:04:43;98457.59;;;10.62
67515;BMP280;60646;55.802;37.032;2023-04-01T07:07:33;98466.38;;;10.76
67515;BMP280;60646;55.802;37.032;2023-04-01T07:13:04;98460.94;;;10.81
67515;BMP280;60646;55.802;37.032;2023-04-01T07:16:10;98469.28;;;10.91
67515;BMP280;60646;55.802;37.032;2023-04-01T07:22:14;98463.94;;;10.91
67515;BMP280;60646;55.802;37.032;2023-04-01T07:28:26;98470.13;;;10.99
67515;BMP280;60646;55.802;37.032;2023-04-01T07:38:19;98480.84;;;11.25
67515;BMP280;60646;55.802;37.032;2023-04-01T07:52:33;98473.44;;;11.44
67515;BMP280;60646;55.802;37.032;2023-04-01T07:55:21;98496.34;;;11.66
67515;BMP280;60646;55.802;37.032;2023-04-01T08:01:05;98499.72;;;11.80
67515;BMP280;60646;55.802;37.032;2023-04-01T08:13:24;98494.53;;;12.08
67515;BMP280;60646;55.802;37.032;2023-04-01T08:19:21;98495.78;;;12.20
67515;BMP280;60646;55.802;37.032;2023-04-01T08:21:58;98484.25;;;12.12
67515;BMP280;60646;55.802;37.032;2023-04-01T08:24:34;98496.78;;;12.17
67515;BMP280;60646;55.802;37.032;2023-04-01T08:27:06;98489.78;;;12.14
67515;BMP280;60646;55.802;37.032;2023-04-01T08:29:46;98489.47;;;12.17
67515;BMP280;60646;55.802;37.032;2023-04-01T08:32:36;98489.28;;;12.15
67515;BMP280;60646;55.802;37.032;2023-04-01T08:38:23;98480.84;;;12.11
67515;BMP280;60646;55.802;37.032;2023-04-01T08:44:24;98495.63;;;12.25
67515;BMP280;60646;55.802;37.032;2023-04-01T08:53:23;98504.25;;;12.32
67515;BMP280;60646;55.802;37.032;2023-04-01T08:56:10;98496.94;;;12.32
67515;BMP280;60646;55.802;37.032;2023-04-01T09:02:39;98511.13;;;12.40
67515;BMP280;60646;55.802;37.032;2023-04-01T09:11:07;98515.13;;;12.47
67515;BMP280;60646;55.802;37.032;2023-04-01T09:14:21;98500.06;;;12.44
67515;BMP280;60646;55.802;37.032;2023-04-01T09:28:01;98493.97;;;12.56
67515;BMP280;60646;55.802;37.032;2023-04-01T09:30:45;98512.81;;;12.71
67515;BMP280;60646;55.802;37.032;2023-04-01T09:36:10;98507.81;;;12.68
67515;BMP280;60646;55.802;37.032;2023-04-01T09:39:17;98522.06;;;12.83
67515;BMP280;60646;55.802;37.032;2023-04-01T09:41:57;98529.91;;;12.81
67515;BMP280;60646;55.802;37.032;2023-04-01T09:45:01;98511.81;;;12.74
67515;BMP280;60646;55.802;37.032;2023-04-01T10:08:21;98528.75;;;13.46
67515;BMP280;60646;55.802;37.032;2023-04-01T10:23:03;98531.78;;;13.86
67515;BMP280;60646;55.802;37.032;2023-04-01T10:40:28;98537.81;;;14.23
67515;BMP280;60646;55.802;37.032;2023-04-01T10:43:49;98542.13;;;14.26
67515;BMP280;60646;55.802;37.032;2023-04-01T10:46:45;98550.53;;;14.30
67515;BMP280;60646;55.802;37.032;2023-04-01T11:12:43;98553.09;;;14.81
67515;BMP280;60646;55.802;37.032;2023-04-01T11:23:02;98555.06;;;15.10
67515;BMP280;60646;55.802;37.032;2023-04-01T11:25:55;98561.16;;;15.18
67515;BMP280;60646;55.802;37.032;2023-04-01T11:31:28;98565.09;;;15.32
67515;BMP280;60646;55.802;37.032;2023-04-01T11:37:04;98571.31;;;15.42
67515;BMP280;60646;55.802;37.032;2023-04-01T11:39:41;98569.16;;;15.49
67515;BMP280;60646;55.802;37.032;2023-04-01T12:04:45;98561.59;;;15.62
67515;BMP280;60646;55.802;37.032;2023-04-01T12:07:27;98577.19;;;15.64
67515;BMP280;60646;55.802;37.032;2023-04-01T12:11:15;98578.09;;;15.66
67515;BMP280;60646;55.802;37.032;2023-04-01T12:19:11;98579.75;;;15.54
67515;BMP280;60646;55.802;37.032;2023-04-01T12:22:02;98579.19;;;15.56
67515;BMP280;60646;55.802;37.032;2023-04-01T12:24:59;98586.38;;;15.53
67515;BMP280;60646;55.802;37.032;2023-04-01T12:55:42;98598.81;;;15.03
67515;BMP280;60646;55.802;37.032;2023-04-01T13:28:25;98642.69;;;14.75
67515;BMP280;60646;55.802;37.032;2023-04-01T13:31:05;98643.78;;;14.80
67515;BMP280;60646;55.802;37.032;2023-04-01T13:36:18;98635.91;;;14.67
67515;BMP280;60646;55.802;37.032;2023-04-01T13:44:36;98644.28;;;14.56
67515;BMP280;60646;55.802;37.032;2023-04-01T13:55:45;98668.66;;;14.58
67515;BMP280;60646;55.802;37.032;2023-04-01T14:00:55;98671.34;;;14.50
67515;BMP280;60646;55.802;37.032;2023-04-01T14:09:09;98676.47;;;14.41
67515;BMP280;60646;55.802;37.032;2023-04-01T14:11:45;98682.22;;;14.37
67515;BMP280;60646;55.802;37.032;2023-04-01T14:17:21;98681.28;;;14.35
67515;BMP280;60646;55.802;37.032;2023-04-01T14:22:33;98691.66;;;14.31
67515;BMP280;60646;55.802;37.032;2023-04-01T14:30:35;98690.53;;;14.19
67515;BMP280;60646;55.802;37.032;2023-04-01T14:33:26;98694.66;;;14.20
67515;BMP280;60646;55.802;37.032;2023-04-01T14:36:18;98700.69;;;14.12
67515;BMP280;60646;55.802;37.032;2023-04-01T14:48:04;98719.97;;;14.03
67515;BMP280;60646;55.802;37.032;2023-04-01T14:50:47;98723.34;;;13.96
67515;BMP280;60646;55.802;37.032;2023-04-01T14:55:51;98728.13;;;13.90
67515;BMP280;60646;55.802;37.032;2023-04-01T14:58:19;98738.34;;;13.92
67515;BMP280;60646;55.802;37.032;2023-04-01T15:16:55;98726.34;;;13.65
67515;BMP280;60646;55.802;37.032;2023-04-01T15:27:51;98754.06;;;13.67
67515;BMP280;60646;55.802;37.032;2023-04-01T15:38:51;98776.00;;;13.58
67515;BMP280;60646;55.802;37.032;2023-04-01T15:46:58;98780.34;;;13.48
67515;BMP280;60646;55.802;37.032;2023-04-01T15:52:45;98789.25;;;13.43
67515;BMP280;60646;55.802;37.032;2023-04-01T16:05:04;98811.38;;;13.36
67515;BMP280;60646;55.802;37.032;2023-04-01T16:18:22;98821.22;;;13.20
67515;BMP280;60646;55.802;37.032;2023-04-01T16:21:02;98823.91;;;13.20
67515;BMP280;60646;55.802;37.032;2023-04-01T16:23:42;98821.75;;;13.19
67515;BMP280;60646;55.802;37.032;2023-04-01T16:26:39;98820.06;;;13.16
67515;BMP280;60646;55.802;37.032;2023-04-01T16:43:45;98831.25;;;13.07
67515;BMP280;60646;55.802;37.032;2023-04-01T16:54:35;98844.06;;;13.01
67515;BMP280;60646;55.802;37.032;2023-04-01T17:02:35;98830.09;;;12.89
67515;BMP280;60646;55.802;37.032;2023-04-01T17:05:06;98838.69;;;12.87
67515;BMP280;60646;55.802;37.032;2023-04-01T17:12:45;98848.59;;;12.93
67515;BMP280;60646;55.802;37.032;2023-04-01T17:20:54;98857.03;;;12.83
67515;BMP280;60646;55.802;37.032;2023-04-01T17:26:36;98846.91;;;12.76
67515;BMP280;60646;55.802;37.032;2023-04-01T17:35:09;98862.81;;;12.74
67515;BMP280;60646;55.802;37.032;2023-04-01T17:37:50;98851.78;;;12.65
67515;BMP280;60646;55.802;37.032;2023-04-01T17:43:51;98865.03;;;12.70
67515;BMP280;60646;55.802;37.032;2023-04-01T17:52:27;98858.25;;;12.56
67515;BMP280;60646;55.802;37.032;2023-04-01T18:07:06;98882.38;;;12.56
67515;BMP280;60646;55.802;37.032;2023-04-01T18:15:32;98885.47;;;12.47
67515;BMP280;60646;55.802;37.032;2023-04-01T18:23:54;98909.59;;;12.60
67515;BMP280;60646;55.802;37.032;2023-04-01T18:26:23;98900.91;;;12.54
67515;BMP280;60646;55.802;37.032;2023-04-01T18:32:08;98898.31;;;12.49
67515;BMP280;60646;55.802;37.032;2023-04-01T18:37:28;98921.28;;;12.57
67515;BMP280;60646;55.802;37.032;2023-04-01T18:40:10;98919.88;;;12.56
67515;BMP280;60646;55.802;37.032;2023-04-01T18:45:45;98925.03;;;12.54
67515;BMP280;60646;55.802;37.032;2023-04-01T18:51:01;98918.94;;;12.54
67515;BMP280;60646;55.802;37.032;2023-04-01T18:53:41;98918.75;;;12.52
67515;BMP280;60646;55.802;37.032;2023-04-01T18:56:26;98926.66;;;12.57
67515;BMP280;60646;55.802;37.032;2023-04-01T19:01:43;98935.00;;;12.54
67515;BMP280;60646;55.802;37.032;2023-04-01T19:04:39;98934.69;;;12.57
67515;BMP280;60646;55.802;37.032;2023-04-01T19:26:56;98934.75;;;12.39
67515;BMP280;60646;55.802;37.032;2023-04-01T19:37:51;98958.59;;;12.55
67515;BMP280;60646;55.802;37.032;2023-04-01T19:46:01;98958.59;;;12.55
67515;BMP280;60646;55.802;37.032;2023-04-01T19:51:24;98954.25;;;12.52
67515;BMP280;60646;55.802;37.032;2023-04-01T20:02:43;98956.56;;;12.61
67515;BMP280;60646;55.802;37.032;2023-04-01T20:09:32;98954.91;;;12.58
67515;BMP280;60646;55.802;37.032;2023-04-01T20:11:44;98951.00;;;12.59
67515;BMP280;60646;55.802;37.032;2023-04-01T20:19:36;98949.94;;;12.62
67515;BMP280;60646;55.802;37.032;2023-04-01T20:22:08;98951.19;;;12.61
67515;BMP280;60646;55.802;37.032;2023-04-01T20:24:45;98949.94;;;12.62
67515;BMP280;60646;55.802;37.032;2023-04-01T20:27:17;98957.81;;;12.60
67515;BMP280;60646;55.802;37.032;2023-04-01T20:30:18;98955.53;;;12.64
67515;BMP280;60646;55.802;37.032;2023-04-01T20:33:10;98959.25;;;12.61
67515;BMP280;60646;55.802;37.032;2023-04-01T20:35:44;98958.81;;;12.57
67515;BMP280;60646;55.802;37.032;2023-04-01T20:47:43;98951.88;;;12.49
67515;BMP280;60646;55.802;37.032;2023-04-01T20:50:05;98972.44;;;12.59
67515;BMP280;60646;55.802;37.032;2023-04-01T20:52:44;98955.38;;;12.44
67515;BMP280;60646;55.802;37.032;2023-04-01T20:55:47;98970.25;;;12.58
67515;BMP280;60646;55.802;37.032;2023-04-01T20:58:28;98971.28;;;12.55
67515;BMP280;60646;55.802;37.032;2023-04-01T21:12:27;98986.63;;;12.54
67515;BMP280;60646;55.802;37.032;2023-04-01T21:15:43;98986.94;;;12.51
67515;BMP280;60646;55.802;37.032;2023-04-01T21:22:59;98994.88;;;12.56
67515;BMP280;60646;55.802;37.032;2023-04-01T21:31:25;98976.56;;;12.60
67515;BMP280;60646;55.802;37.032;2023-04-01T21:37:32;98980.25;;;12.57
67515;BMP280;60646;55.802;37.032;2023-04-01T21:40:12;98973.00;;;12.52
67515;BMP280;60646;55.802;37.032;2023-04-01T21:52:10;98986.03;;;12.61
67515;BMP280;60646;55.802;37.032;2023-04-01T22:00:30;98967.03;;;12.46
67515;BMP280;60646;55.802;37.032;2023-04-01T22:06:25;98989.53;;;12.56
67515;BMP280;60646;55.802;37.032;2023-04-01T22:09:23;98985.38;;;12.55
67515;BMP280;60646;55.802;37.032;2023-04-01T22:12:09;98979.91;;;12.48
67515;BMP280;60646;55.802;37.032;2023-04-01T22:17:23;98983.13;;;12.46
67515;BMP280;60646;55.802;37.032;2023-04-01T22:23:09;99002.31;;;12.63
67515;BMP280;60646;55.802;37.032;2023-04-01T22:26:00;98996.75;;;12.61
67515;BMP280;60646;55.802;37.032;2023-04-01T22:28:36;98998.09;;;12.55
67515;BMP280;60646;55.802;37.032;2023-04-01T22:31:08;99004.59;;;12.59
67515;BMP280;60646;55.802;37.032;2023-04-01T22:49:41;99012.13;;;12.61
67515;BMP280;60646;55.802;37.032;2023-04-01T22:55:00;98975.84;;;12.41
67515;BMP280;60646;55.802;37.032;2023-04-01T23:00:34;98988.66;;;12.48
67515;BMP280;60646;55.802;37.032;2023-04-01T23:06:03;98982.66;;;12.42
67515;BMP280;60646;55.802;37.032;2023-04-01T23:11:02;99000.38;;;12.64
67515;BMP280;60646;55.802;37.032;2023-04-01T23:13:34;99000.81;;;12.49
67515;BMP280;60646;55.802;37.032;2023-04-01T23:16:03;98989.69;;;12.45
67515;BMP280;60646;55.802;37.032;2023-04-01T23:18:37;98984.34;;;12.45
67515;BMP280;60646;55.802;37.032;2023-04-01T23:21:24;98996.91;;;12.50
67515;BMP280;60646;55.802;37.032;2023-04-01T23:24:14;99014.81;;;12.61
67515;BMP280;60646;55.802;37.032;2023-04-01T23:26:52;99014.84;;;12.55
67515;BMP280;60646;55.802;37.032;2023-04-01T23:29:21;99018.25;;;12.56
67515;BMP280;60646;55.802;37.032;2023-04-01T23:31:58;98996.06;;;12.42
67515;BMP280;60646;55.802;37.032;2023-04-01T23:34:37;98993.59;;;12.44
67515;BMP280;60646;55.802;37.032;2023-04-01T23:37:13;98989.69;;;12.45
67515;BMP280;60646;55.802;37.032;2023-04-01T23:39:44;98984.94;;;12.38
67515;BMP280;60646;55.802;37.032;2023-04-01T23:42:15;99015.28;;;12.59
67515;BMP280;60646;55.802;37.032;2023-04-01T23:44:43;99007.75;;;12.58
67515;BMP280;60646;55.802;37.032;2023-04-01T23:47:17;98993.59;;;12.44
67515;BMP280;60646;55.802;37.032;2023-04-01T23:49:52;98996.19;;;12.50
67515;BMP280;60646;55.802;37.032;2023-04-01T23:52:25;99014.56;;;12.59
67515;BMP280;60646;55.802;37.032;2023-04-01T23:54:58;98999.34;;;12.48
67515;BMP280;60646;55.802;37.032;2023-04-01T23:57:34;98975.66;;;12.39
